• Join FlightAware (Why Join?)
  • Login
  • US Flag 
07:14PM EDT


 

Airport Tracker/Info


-or-


 

Live Flight TrackerFlight Track Log ✈ WJA536 ✈ 09-May-2013 ✈ CYYC - CYHM

Flight Track Log - Related Links

Times and Time Zones

All times are in EDT time to prevent confusion due to time zone crossing. See the WJA536 flight status page for this flight to view local times or setup timezone preferences in your user account.

Time Position Orientation Groundspeed Altitude Reporting Facility
EDT Latitude Longitude Course Direction KTS MPH feet Rate Location/Type
08:44PM 51.1000 -114.0833 95° East 160 184 4,900  Level Edmonton Center
08:45PM 51.1333 -114.1500 309° West 220 253 7,100 2,520 Climbing Edmonton Center
08:46PM 51.1167 -114.2500 255° West 270 311 10,000 2,760 Climbing Edmonton Center
08:47PM 51.0500 -114.2167 163° South 310 357 12,700 3,000 Climbing Edmonton Center
08:48PM 51.0500 -114.0833 90° East 310 357 16,000 2,940 Climbing Edmonton Center
08:49PM 51.0500 -113.9500 90° East 330 380 18,600 1,740 Climbing Edmonton Center
08:50PM 51.0644 -112.6441 95° East  Level FlightAware Approximate
08:50PM 51.0333 -113.7833 99° East 380 437 19,500  Level Edmonton Center
08:51PM 51.0333 -113.6000 90° East 410 472 21,400 2,100 Climbing Edmonton Center
08:52PM 51.0500 -113.4000 82° East 420 483 23,700 2,040 Climbing Edmonton Center
08:53PM 51.0500 -113.2167 90° East 430 495 25,500 1,740 Climbing Edmonton Center
08:54PM 51.0500 -113.0000 90° East 440 506 27,200 1,680 Climbing Edmonton Center
08:55PM 51.0500 -112.8167 90° East 450 518 28,900 1,560 Climbing Edmonton Center
08:56PM 51.0500 -112.6000 90° East 460 529 30,400 1,500 Climbing Edmonton Center
08:57PM 51.0167 -112.4000 105° East 470 541 32,000 1,620 Climbing Edmonton Center
08:58PM 51.0167 -112.1833 90° East 460 529 33,700 1,500 Climbing Edmonton Center
08:59PM 51.0167 -112.0000 90° East 460 529 35,000 1,200 Climbing Edmonton Center
09:00PM 51.0000 -111.7833 97° East 460 529 36,200 960 Climbing Edmonton Center
09:01PM 50.9833 -111.5833 97° East 460 529 37,000 360 Climbing Edmonton Center
09:02PM 50.9833 -111.4000 90° East 460 529 37,000  Level Edmonton Center
09:03PM 50.9667 -111.1833 97° East 460 529 37,000  Level Edmonton Center
09:04PM 50.9500 -110.9667 97° East 460 529 37,000  Level Edmonton Center
09:05PM 50.9500 -110.7500 90° East 460 529 37,000  Level Edmonton Center
09:06PM 50.9333 -110.5667 98° East 460 529 37,000  Level Edmonton Center
09:07PM 50.9167 -110.3500 97° East 460 529 37,000  Level Edmonton Center
09:08PM 50.9167 -110.2000 90° East 470 541 37,000  Level Winnipeg Center
09:14PM 50.8290 -109.0280 90° East 481 554 37,000  Level FlightAware
09:14PM 50.8140 -108.8850 99° East 481 554 37,000  Level FlightAware
09:15PM 50.7990 -108.7410 99° East 480 552 37,000  Level FlightAware
09:16PM 50.7830 -108.5980 100° East 481 554 37,000  Level FlightAware
09:16PM 50.7650 -108.4350 100° East 482 555 37,000  Level FlightAware
09:17PM 50.7480 -108.2700 99° East 482 555 37,000  Level FlightAware
09:18PM 50.7240 -108.0630 100° East 483 556 37,000  Level FlightAware
09:19PM 50.7060 -107.9050 100° East 483 556 37,000  Level FlightAware
09:20PM 50.6840 -107.7170 100° East 482 555 37,000  Level FlightAware
09:21PM 50.6650 -107.5600 101° East 481 554 37,000  Level FlightAware
09:21PM 50.6510 -107.4360 100° East 480 552 37,000  Level FlightAware
09:22PM 50.6320 -107.2760 101° East 478 550 37,000  Level FlightAware
09:23PM 50.6150 -107.1370 101° East 477 549 37,000  Level FlightAware
09:23PM 50.5990 -107.0100 101° East 477 549 37,000  Level FlightAware
09:24PM 50.5740 -106.8110 101° East 476 548 37,000  Level FlightAware
09:25PM 50.5530 -106.6440 101° East 476 548 37,000  Level FlightAware
09:26PM 50.5390 -106.5320 101° East 477 549 37,000  Level FlightAware
09:26PM 50.5200 -106.3870 102° East 478 550 37,000  Level FlightAware
09:27PM 50.5010 -106.2430 102° East 479 551 37,000  Level FlightAware
09:28PM 50.4810 -106.0870 101° East 480 552 37,000  Level FlightAware
09:28PM 50.4660 -105.9750 102° East 481 554 37,000  Level FlightAware
09:29PM 50.4420 -105.7930 102° East 481 554 37,000  Level FlightAware
09:30PM 50.4230 -105.6520 102° East 480 552 37,000  Level FlightAware
09:31PM 50.4030 -105.5100 102° East 480 552 37,000  Level FlightAware
09:31PM 50.3860 -105.3860 102° East 480 552 37,000  Level FlightAware
09:32PM 50.3660 -105.2380 102° East 480 552 37,000  Level FlightAware
09:33PM 50.3440 -105.0870 103° East 479 551 37,000  Level FlightAware
09:33PM 50.3260 -104.9590 102° East 478 550 37,000  Level FlightAware
09:34PM 50.3060 -104.8180 102° East 478 550 37,000  Level FlightAware
09:35PM 50.2840 -104.6710 103° East 477 549 37,000  Level FlightAware
09:35PM 50.2650 -104.5380 103° East 477 549 37,000  Level FlightAware
09:36PM 50.2450 -104.4020 103° East 477 549 37,000  Level FlightAware
09:37PM 50.2220 -104.2490 103° East 476 548 37,000  Level FlightAware
09:38PM 50.1990 -104.0930 103° East 475 547 37,000  Level FlightAware
09:38PM 50.1820 -103.9840 104° East 475 547 37,000  Level FlightAware
09:39PM 50.1580 -103.8220 103° East 476 548 37,000  Level FlightAware
09:40PM 50.1360 -103.6810 104° East 476 548 37,000  Level FlightAware
09:40PM 50.1160 -103.5540 104° East 475 547 37,000  Level FlightAware
09:41PM 50.0960 -103.4230 103° East 475 547 37,000  Level FlightAware
09:42PM 50.0730 -103.2800 104° East 475 547 37,000  Level FlightAware
09:42PM 50.0470 -103.1150 104° East 475 547 37,000  Level FlightAware
09:43PM 50.0230 -102.9680 104° East 475 547 37,000  Level FlightAware
09:44PM 50.0020 -102.8400 104° East 475 547 37,000  Level FlightAware
09:44PM 49.9820 -102.7170 104° East 475 547 37,000  Level FlightAware
09:45PM 49.9500 -102.6667 104° East 470 541 37,000  Level Winnipeg Center
09:46PM 49.9167 -102.4500 103° East 470 541 37,000  Level Winnipeg Center
09:47PM 49.8833 -102.2667 106° East 470 541 37,000  Level Winnipeg Center
09:48PM 49.8500 -102.0500 103° East 470 541 37,000  Level Winnipeg Center
09:49PM 49.8167 -101.8667 106° East 470 541 37,000  Level Winnipeg Center
09:50PM 49.7833 -101.6500 103° East 470 541 37,000  Level Winnipeg Center
09:51PM 49.7500 -101.4667 106° East 470 541 37,000  Level Winnipeg Center
09:52PM 49.7167 -101.2833 106° East 470 541 37,000  Level Winnipeg Center
09:53PM 49.6667 -101.0833 111° Southeast 470 541 37,000  Level Winnipeg Center
09:54PM 49.6500 -100.9000 98° East 470 541 37,000  Level Winnipeg Center
09:55PM 49.6000 -100.6833 110° East 470 541 37,000  Level Winnipeg Center
09:56PM 49.5667 -100.5000 106° East 470 541 37,000  Level Winnipeg Center
09:57PM 49.5333 -100.2833 103° East 470 541 37,000  Level Winnipeg Center
09:58PM 49.5000 -100.1167 107° East 470 541 37,000  Level Winnipeg Center
09:59PM 49.4500 -99.9333 113° Southeast 470 541 37,000  Level Winnipeg Center
10:00PM 49.4167 -99.7500 106° East 470 541 37,000  Level Winnipeg Center
10:01PM 49.3500 -99.5667 119° Southeast 470 541 37,000  Level Winnipeg Center
10:02PM 49.3000 -99.3833 113° Southeast 470 541 37,000  Level Winnipeg Center
10:03PM 49.2333 -99.2000 119° Southeast 460 529 37,000  Level Winnipeg Center
10:04PM 49.2000 -99.0167 105° East 470 541 37,000  Level Winnipeg Center
10:05PM 49.1333 -98.8333 119° Southeast 470 541 37,000  Level Winnipeg Center
10:06PM 49.0833 -98.6833 117° Southeast 470 541 37,000  Level Winnipeg Center
10:07PM 49.0167 -98.4667 115° Southeast 470 541 37,000  Level Winnipeg Center
10:08PM 48.9667 -98.2833 113° Southeast 480 552 37,000  Level Winnipeg Center
10:09PM 48.9000 -98.1167 121° Southeast 480 552 37,000  Level Winnipeg Center
10:10PM 48.8333 -97.9333 119° Southeast 480 552 37,000  Level Winnipeg Center
10:10PM 48.8403 -97.8708 80° East 481 554 37,000  Level Minneapolis Center
10:11PM 48.7817 -97.6911 116° Southeast 478 550 37,000 360 Level Minneapolis Center
10:12PM 48.7233 -97.5078 116° Southeast 481 554 37,800 780 Climbing Minneapolis Center
10:13PM 48.6633 -97.3250 116° Southeast 483 556 38,600 540 Climbing Minneapolis Center
10:14PM 48.6019 -97.1408 117° Southeast 488 562 39,000 120 Climbing Minneapolis Center
10:15PM 48.5414 -96.9578 116° Southeast 488 562 39,000  Level Minneapolis Center
10:16PM 48.4675 -96.7403 117° Southeast 485 558 39,000  Level Minneapolis Center
10:17PM 48.4072 -96.5592 117° Southeast 484 557 39,000  Level Minneapolis Center
10:18PM 48.3342 -96.3469 117° Southeast 480 552 39,000  Level Minneapolis Center
10:20PM 48.2736 -96.1681 117° Southeast 480 552 39,000  Level Minneapolis Center
10:21PM 48.2108 -95.9897 118° Southeast 481 554 39,000  Level Minneapolis Center
10:22PM 48.1503 -95.8172 118° Southeast 477 549 39,000  Level Minneapolis Center
10:23PM 48.0914 -95.6419 117° Southeast 475 547 39,000  Level Minneapolis Center
10:24PM 48.0281 -95.4658 118° Southeast 477 549 39,000  Level Minneapolis Center
10:25PM 47.9647 -95.2900 118° Southeast 481 554 39,000  Level Minneapolis Center
10:26PM 47.8900 -95.0800 118° Southeast 480 552 39,000  Level Minneapolis Center
10:27PM 47.8153 -94.8736 118° Southeast 476 548 39,000  Level Minneapolis Center
10:28PM 47.7531 -94.7014 118° Southeast 475 547 39,000  Level Minneapolis Center
10:29PM 47.6792 -94.4975 118° Southeast 471 542 39,000  Level Minneapolis Center
10:30PM 47.6175 -94.3286 118° Southeast 469 540 39,000  Level Minneapolis Center
10:31PM 47.5556 -94.1583 118° Southeast 471 542 39,000  Level Minneapolis Center
10:32PM 47.4933 -93.9889 118° Southeast 471 542 39,000  Level Minneapolis Center
10:33PM 47.4178 -93.7869 119° Southeast 472 543 39,000  Level Minneapolis Center
10:34PM 47.3542 -93.6203 119° Southeast 471 542 39,000  Level Minneapolis Center
10:35PM 47.2906 -93.4556 120° Southeast 470 541 39,000  Level Minneapolis Center
10:36PM 47.2278 -93.2892 119° Southeast 475 547 39,000  Level Minneapolis Center
10:37PM 47.1650 -93.1256 119° Southeast 472 543 39,000  Level Minneapolis Center
10:38PM 47.0867 -92.9244 120° Southeast 477 549 39,000  Level Minneapolis Center
10:39PM 47.0222 -92.7578 120° Southeast 475 547 39,000  Level Minneapolis Center
10:40PM 46.9561 -92.5914 120° Southeast 475 547 39,000  Level Minneapolis Center
10:41PM 46.8908 -92.4242 120° Southeast 476 548 39,000  Level Minneapolis Center
10:43PM 46.8256 -92.2600 120° Southeast 472 543 39,000  Level Minneapolis Center
10:44PM 46.7656 -92.0897 117° Southeast 472 543 39,000  Level Minneapolis Center
10:45PM 46.7119 -91.9175 114° Southeast 471 542 39,000  Level Minneapolis Center
10:46PM 46.6547 -91.7442 116° Southeast 474 545 39,000  Level Minneapolis Center
10:47PM 46.5936 -91.5489 114° Southeast 475 547 39,000  Level Minneapolis Center
10:48PM 46.5375 -91.3742 115° Southeast 476 548 39,000  Level Minneapolis Center
10:49PM 46.4819 -91.2003 115° Southeast 476 548 39,000  Level Minneapolis Center
10:50PM 46.4264 -91.0250 115° Southeast 479 551 39,000  Level Minneapolis Center
10:51PM 46.3581 -90.8169 115° Southeast 479 551 39,000  Level Minneapolis Center
10:52PM 46.3006 -90.6453 116° Southeast 476 548 39,000  Level Minneapolis Center
10:53PM 46.2444 -90.4719 115° Southeast 476 548 39,000  Level Minneapolis Center
10:54PM 46.1858 -90.3003 116° Southeast 477 549 39,000  Level Minneapolis Center
10:55PM 46.1289 -90.1281 115° Southeast 478 550 39,000  Level Minneapolis Center
10:56PM 46.0706 -89.9572 116° Southeast 477 549 39,000  Level Minneapolis Center
10:57PM 46.0131 -89.7856 116° Southeast 480 552 39,000  Level Minneapolis Center
10:58PM 45.9456 -89.5900 116° Southeast 482 555 39,000  Level Minneapolis Center
10:59PM 45.8856 -89.4192 117° Southeast 481 554 39,000  Level Minneapolis Center
11:00PM 45.8189 -89.2231 116° Southeast 482 555 39,000  Level Minneapolis Center
11:01PM 45.7594 -89.0525 116° Southeast 479 551 39,000  Level Minneapolis Center
11:02PM 45.6944 -88.8728 117° Southeast 480 552 39,000  Level Minneapolis Center
11:03PM 45.6358 -88.7039 116° Southeast 478 550 39,000  Level Minneapolis Center
11:04PM 45.5750 -88.5344 117° Southeast 479 551 39,000  Level Minneapolis Center
11:05PM 45.5144 -88.3656 117° Southeast 479 551 39,000  Level Minneapolis Center
11:06PM 45.4533 -88.1986 118° Southeast 480 552 39,000  Level Minneapolis Center
11:07PM 45.3925 -88.0308 117° Southeast 479 551 39,000  Level Minneapolis Center
11:08PM 45.3308 -87.8631 118° Southeast 479 551 39,000  Level Minneapolis Center
11:09PM 45.2572 -87.6633 118° Southeast 477 549 39,000  Level Minneapolis Center
11:10PM 45.1956 -87.4964 118° Southeast 479 551 39,000  Level Minneapolis Center
11:11PM 45.1333 -87.3300 118° Southeast 478 550 39,000  Level Minneapolis Center
11:12PM 45.0708 -87.1644 118° Southeast 478 550 39,000  Level Minneapolis Center
11:14PM 44.9953 -86.9658 118° Southeast 480 552 39,000  Level Minneapolis Center
11:15PM 44.9319 -86.7997 118° Southeast 481 554 39,000  Level Minneapolis Center
11:16PM 44.8711 -86.6392 118° Southeast 485 558 39,000  Level Minneapolis Center
11:17PM 44.7953 -86.4406 118° Southeast 483 556 39,000  Level Minneapolis Center
11:18PM 44.7303 -86.2764 119° Southeast 480 552 39,000  Level Minneapolis Center
11:19PM 44.6669 -86.1122 118° Southeast 480 552 39,000  Level Minneapolis Center
11:20PM 44.6044 -85.9547 119° Southeast 478 550 39,000  Level Minneapolis Center
11:21PM 44.5414 -85.7936 119° Southeast 478 550 39,000  Level Minneapolis Center
11:22PM 44.4642 -85.5986 119° Southeast 478 550 39,000  Level Minneapolis Center
11:23PM 44.3878 -85.4058 119° Southeast 476 548 39,000  Level Minneapolis Center
11:24PM 44.3225 -85.2458 120° Southeast 477 549 39,000  Level Minneapolis Center
11:25PM 44.2575 -85.0844 119° Southeast 477 549 39,000  Level Minneapolis Center
11:26PM 44.1922 -84.9242 120° Southeast 478 550 39,000  Level Minneapolis Center
11:27PM 44.1258 -84.7622 120° Southeast 481 554 39,000  Level Minneapolis Center
11:28PM 44.0592 -84.5994 120° Southeast 484 557 39,000  Level Minneapolis Center
11:29PM 43.9933 -84.4372 119° Southeast 483 556 39,000  Level Minneapolis Center
11:30PM 43.9194 -84.2622 120° Southeast 486 559 39,000  Level Minneapolis Center
11:31PM 43.8522 -84.1000 120° Southeast 485 558 39,000  Level Minneapolis Center
11:32PM 43.7847 -83.9383 120° Southeast 485 558 39,000  Level Minneapolis Center
11:33PM 43.7169 -83.7769 120° Southeast 486 559 39,000  Level Minneapolis Center
11:34PM 43.6472 -83.6158 121° Southeast 488 562 39,000  Level Minneapolis Center
11:35PM 43.6025 -83.5186 122° Southeast 484 557 39,000  Level Cleveland Center
11:36PM 43.5336 -83.3522 120° Southeast 484 557 39,000  Level Cleveland Center
11:37PM 43.4664 -83.2003 121° Southeast 489 563 39,000 -420 Level Cleveland Center
11:38PM 43.3947 -83.0403 122° Southeast 484 557 38,200 -900 Descending Cleveland Center
11:38PM 43.3500 -82.9500 124° Southeast 480 552 37,700 -1,020 Descending Toronto Center
11:39PM 43.3272 -82.8806 114° Southeast 484 557 37,200 -1,740 Descending Cleveland Center
11:40PM 43.2636 -82.7269 120° Southeast 484 557 35,200 -2,100 Descending Cleveland Center
11:41PM 43.2314 -82.5464 104° East 476 548 33,000 -2,340 Descending Cleveland Center
11:41PM 43.2167 -82.4500 102° East 480 552 31,700 -2,220 Descending Toronto Center
11:42PM 43.1833 -82.2667 104° East 470 541 29,700 -2,100 Descending Toronto Center
11:43PM 43.1500 -82.1000 105° East 460 529 27,500 -2,100 Descending Toronto Center
11:44PM 43.1333 -81.9333 98° East 450 518 25,600 -1,920 Descending Toronto Center
11:45PM 43.1167 -81.7833 99° East 430 495 23,700 -1,980 Descending Toronto Center
11:46PM 43.1000 -81.6167 98° East 410 472 21,700 -1,860 Descending Toronto Center
11:47PM 43.0667 -81.4667 107° East 400 460 20,000 -1,740 Descending Toronto Center
11:48PM 43.0500 -81.3500 101° East 380 437 18,300 -1,800 Descending Toronto Center
11:49PM 43.0333 -81.1833 98° East 370 426 16,500 -1,740 Descending Toronto Center
11:50PM 43.0333 -81.0667 90° East 350 403 14,900 -1,800 Descending Toronto Center
11:51PM 43.0500 -80.9333 80° East 350 403 12,900 -2,220 Descending Toronto Center
11:52PM 43.0833 -80.8000 71° East 350 403 10,500 -1,620 Descending Toronto Center
11:53PM 43.1167 -80.6833 69° East 340 391 9,700 -900 Descending Toronto Center
11:54PM 43.1333 -80.5667 79° East 300 345 8,700 -1,200 Descending Toronto Center
11:55PM 43.1500 -80.4833 75° East 290 334 7,400 -1,380 Descending Toronto Center
11:56PM 43.1667 -80.3667 79° East 280 322 6,000 -1,140 Descending Toronto Center
11:57PM 43.1833 -80.2667 77° East 270 311 5,200 -840 Descending Toronto Center
11:58PM 43.2000 -80.1833 75° East 240 276 4,400 -1,020 Descending Toronto Center
11:59PM 43.2167 -80.0833 77° East 220 253 3,200 -1,140 Descending Toronto Center
12:00AM 43.2000 -80.0167 109° East 190 219 2,200 -900 Descending Toronto Center
12:01AM 43.1833 -79.9833 124° Southeast 160 184 1,400 -780 Descending Toronto Center
12:02AM 43.1667 -79.9333 115° Southeast 150 173 700 -720 Descending Toronto Center